sensor_id;sensor_type;location;lat;lon;timestamp;temperature;humidity
39919;DHT22;25589;51.552;13.424;2022-10-31T00:00:07;14.60;99.90
39919;DHT22;25589;51.552;13.424;2022-10-31T00:02:36;14.70;99.90
39919;DHT22;25589;51.552;13.424;2022-10-31T00:05:02;14.50;99.90
39919;DHT22;25589;51.552;13.424;2022-10-31T00:07:28;14.60;99.90
39919;DHT22;25589;51.552;13.424;2022-10-31T00:09:53;14.60;99.90
39919;DHT22;25589;51.552;13.424;2022-10-31T00:12:19;14.60;99.90
39919;DHT22;25589;51.552;13.424;2022-10-31T00:14:44;14.70;99.90
39919;DHT22;25589;51.552;13.424;2022-10-31T00:17:10;14.30;99.90
39919;DHT22;25589;51.552;13.424;2022-10-31T00:19:35;15.00;99.90
39919;DHT22;25589;51.552;13.424;2022-10-31T00:22:01;14.50;99.90
39919;DHT22;25589;51.552;13.424;2022-10-31T00:24:26;14.50;99.90
39919;DHT22;25589;51.552;13.424;2022-10-31T00:26:52;14.00;99.90
39919;DHT22;25589;51.552;13.424;2022-10-31T00:29:20;13.90;99.90
39919;DHT22;25589;51.552;13.424;2022-10-31T00:31:46;14.50;99.90
39919;DHT22;25589;51.552;13.424;2022-10-31T00:34:11;14.90;99.90
39919;DHT22;25589;51.552;13.424;2022-10-31T00:36:37;14.40;99.90
39919;DHT22;25589;51.552;13.424;2022-10-31T00:39:02;14.40;99.90
39919;DHT22;25589;51.552;13.424;2022-10-31T00:41:28;14.40;99.90
39919;DHT22;25589;51.552;13.424;2022-10-31T00:43:55;14.40;99.90
39919;DHT22;25589;51.552;13.424;2022-10-31T00:46:20;14.40;99.90
39919;DHT22;25589;51.552;13.424;2022-10-31T00:48:48;14.70;99.90
39919;DHT22;25589;51.552;13.424;2022-10-31T00:51:13;14.20;99.90
39919;DHT22;25589;51.552;13.424;2022-10-31T00:53:40;13.40;99.90
39919;DHT22;25589;51.552;13.424;2022-10-31T00:56:06;14.20;99.90
39919;DHT22;25589;51.552;13.424;2022-10-31T00:58:32;14.30;99.90
39919;DHT22;25589;51.552;13.424;2022-10-31T01:00:57;14.20;99.90
39919;DHT22;25589;51.552;13.424;2022-10-31T01:03:24;14.10;99.90
39919;DHT22;25589;51.552;13.424;2022-10-31T01:05:58;14.80;99.90
39919;DHT22;25589;51.552;13.424;2022-10-31T01:08:24;14.10;99.90
39919;DHT22;25589;51.552;13.424;2022-10-31T01:11:13;14.10;99.90
39919;DHT22;25589;51.552;13.424;2022-10-31T01:13:40;14.00;99.90
39919;DHT22;25589;51.552;13.424;2022-10-31T01:16:07;13.90;99.90
39919;DHT22;25589;51.552;13.424;2022-10-31T01:18:34;13.90;99.90
39919;DHT22;25589;51.552;13.424;2022-10-31T01:21:02;13.90;99.90
39919;DHT22;25589;51.552;13.424;2022-10-31T01:23:28;13.90;99.90
39919;DHT22;25589;51.552;13.424;2022-10-31T01:26:02;13.20;99.90
39919;DHT22;25589;51.552;13.424;2022-10-31T01:28:29;13.80;99.90
39919;DHT22;25589;51.552;13.424;2022-10-31T01:30:54;13.70;99.90
39919;DHT22;25589;51.552;13.424;2022-10-31T01:33:20;13.60;99.90
39919;DHT22;25589;51.552;13.424;2022-10-31T01:35:45;13.40;99.90
39919;DHT22;25589;51.552;13.424;2022-10-31T01:38:11;13.20;99.90
39919;DHT22;25589;51.552;13.424;2022-10-31T01:40:36;13.60;99.90
39919;DHT22;25589;51.552;13.424;2022-10-31T01:43:02;13.70;99.90
39919;DHT22;25589;51.552;13.424;2022-10-31T01:45:28;14.20;99.90
39919;DHT22;25589;51.552;13.424;2022-10-31T01:47:53;14.10;99.90
39919;DHT22;25589;51.552;13.424;2022-10-31T01:50:32;13.60;99.90
39919;DHT22;25589;51.552;13.424;2022-10-31T01:52:59;13.90;99.90
39919;DHT22;25589;51.552;13.424;2022-10-31T01:55:30;13.70;99.90
39919;DHT22;25589;51.552;13.424;2022-10-31T01:57:59;13.00;99.90
39919;DHT22;25589;51.552;13.424;2022-10-31T02:00:25;13.70;99.90
39919;DHT22;25589;51.552;13.424;2022-10-31T02:02:51;13.80;99.90
39919;DHT22;25589;51.552;13.424;2022-10-31T02:05:20;13.60;99.90
39919;DHT22;25589;51.552;13.424;2022-10-31T02:08:04;13.60;99.90
39919;DHT22;25589;51.552;13.424;2022-10-31T02:10:33;13.50;99.90
39919;DHT22;25589;51.552;13.424;2022-10-31T02:13:02;13.50;99.90
39919;DHT22;25589;51.552;13.424;2022-10-31T02:15:29;13.50;99.90
39919;DHT22;25589;51.552;13.424;2022-10-31T02:17:56;13.30;99.90
39919;DHT22;25589;51.552;13.424;2022-10-31T02:20:24;13.50;99.90
39919;DHT22;25589;51.552;13.424;2022-10-31T02:23:08;13.30;99.90
39919;DHT22;25589;51.552;13.424;2022-10-31T02:25:45;13.70;99.90
39919;DHT22;25589;51.552;13.424;2022-10-31T02:28:38;13.30;99.90
39919;DHT22;25589;51.552;13.424;2022-10-31T02:31:33;13.30;99.90
39919;DHT22;25589;51.552;13.424;2022-10-31T02:36:53;13.20;99.90
39919;DHT22;25589;51.552;13.424;2022-10-31T02:45:56;13.30;99.90
39919;DHT22;25589;51.552;13.424;2022-10-31T02:48:26;13.00;99.90
39919;DHT22;25589;51.552;13.424;2022-10-31T02:50:59;13.20;99.90
39919;DHT22;25589;51.552;13.424;2022-10-31T02:53:26;13.20;99.90
39919;DHT22;25589;51.552;13.424;2022-10-31T02:56:15;13.10;99.90
39919;DHT22;25589;51.552;13.424;2022-10-31T02:58:51;13.20;99.90
39919;DHT22;25589;51.552;13.424;2022-10-31T03:01:51;13.10;99.90
39919;DHT22;25589;51.552;13.424;2022-10-31T03:04:41;13.20;99.90
39919;DHT22;25589;51.552;13.424;2022-10-31T03:07:19;13.10;99.90
39919;DHT22;25589;51.552;13.424;2022-10-31T03:12:29;13.10;99.90
39919;DHT22;25589;51.552;13.424;2022-10-31T03:15:23;13.10;99.90
39919;DHT22;25589;51.552;13.424;2022-10-31T03:20:52;12.80;99.90
39919;DHT22;25589;51.552;13.424;2022-10-31T03:23:22;13.00;99.90
39919;DHT22;25589;51.552;13.424;2022-10-31T03:25:51;13.60;99.90
39919;DHT22;25589;51.552;13.424;2022-10-31T03:28:23;13.50;99.90
39919;DHT22;25589;51.552;13.424;2022-10-31T03:30:52;13.00;99.90
39919;DHT22;25589;51.552;13.424;2022-10-31T03:33:23;13.30;99.90
39919;DHT22;25589;51.552;13.424;2022-10-31T03:35:56;12.90;99.90
39919;DHT22;25589;51.552;13.424;2022-10-31T03:38:23;12.90;99.90
39919;DHT22;25589;51.552;13.424;2022-10-31T03:40:51;13.00;99.90
39919;DHT22;25589;51.552;13.424;2022-10-31T03:43:23;12.70;99.90
39919;DHT22;25589;51.552;13.424;2022-10-31T03:45:50;12.90;99.90
39919;DHT22;25589;51.552;13.424;2022-10-31T03:48:18;12.50;99.90
39919;DHT22;25589;51.552;13.424;2022-10-31T03:50:52;12.80;99.90
39919;DHT22;25589;51.552;13.424;2022-10-31T03:54:32;12.80;99.90
39919;DHT22;25589;51.552;13.424;2022-10-31T03:56:37;12.70;99.90
39919;DHT22;25589;51.552;13.424;2022-10-31T03:59:16;12.70;99.90
39919;DHT22;25589;51.552;13.424;2022-10-31T04:04:12;12.60;99.90
39919;DHT22;25589;51.552;13.424;2022-10-31T04:06:40;12.60;99.90
39919;DHT22;25589;51.552;13.424;2022-10-31T04:09:08;12.60;99.90
39919;DHT22;25589;51.552;13.424;2022-10-31T04:11:38;12.70;99.90
39919;DHT22;25589;51.552;13.424;2022-10-31T04:14:25;12.60;99.90
39919;DHT22;25589;51.552;13.424;2022-10-31T04:16:51;13.10;99.90
39919;DHT22;25589;51.552;13.424;2022-10-31T04:19:21;12.70;99.90
39919;DHT22;25589;51.552;13.424;2022-10-31T04:21:47;12.20;99.90
39919;DHT22;25589;51.552;13.424;2022-10-31T04:24:13;12.50;99.90
39919;DHT22;25589;51.552;13.424;2022-10-31T04:26:39;12.40;99.90
39919;DHT22;25589;51.552;13.424;2022-10-31T04:29:05;12.70;99.90
39919;DHT22;25589;51.552;13.424;2022-10-31T04:31:30;12.30;99.90
39919;DHT22;25589;51.552;13.424;2022-10-31T04:33:56;12.00;99.90
39919;DHT22;25589;51.552;13.424;2022-10-31T04:36:22;12.40;99.90
39919;DHT22;25589;51.552;13.424;2022-10-31T04:38:47;12.50;99.90
39919;DHT22;25589;51.552;13.424;2022-10-31T04:41:30;12.10;99.90
39919;DHT22;25589;51.552;13.424;2022-10-31T04:46:27;12.50;99.90
39919;DHT22;25589;51.552;13.424;2022-10-31T04:48:53;12.50;99.90
39919;DHT22;25589;51.552;13.424;2022-10-31T04:51:18;12.50;99.90
39919;DHT22;25589;51.552;13.424;2022-10-31T04:53:44;12.50;99.90
39919;DHT22;25589;51.552;13.424;2022-10-31T04:56:28;12.00;99.90
39919;DHT22;25589;51.552;13.424;2022-10-31T04:58:57;12.50;99.90
39919;DHT22;25589;51.552;13.424;2022-10-31T05:01:24;12.60;99.90
39919;DHT22;25589;51.552;13.424;2022-10-31T05:03:50;12.40;99.90
39919;DHT22;25589;51.552;13.424;2022-10-31T05:06:16;12.50;99.90
39919;DHT22;25589;51.552;13.424;2022-10-31T05:08:42;13.00;99.90
39919;DHT22;25589;51.552;13.424;2022-10-31T05:11:09;12.80;99.90
39919;DHT22;25589;51.552;13.424;2022-10-31T05:13:35;13.10;99.90
39919;DHT22;25589;51.552;13.424;2022-10-31T05:16:13;12.50;99.90
39919;DHT22;25589;51.552;13.424;2022-10-31T05:19:16;12.40;99.90
39919;DHT22;25589;51.552;13.424;2022-10-31T05:22:20;12.40;99.90
39919;DHT22;25589;51.552;13.424;2022-10-31T05:24:45;12.30;99.90
39919;DHT22;25589;51.552;13.424;2022-10-31T05:27:12;12.30;99.90
39919;DHT22;25589;51.552;13.424;2022-10-31T05:29:38;12.30;99.90
39919;DHT22;25589;51.552;13.424;2022-10-31T05:32:03;12.60;99.90
39919;DHT22;25589;51.552;13.424;2022-10-31T05:34:54;12.20;99.90
39919;DHT22;25589;51.552;13.424;2022-10-31T05:37:37;12.20;99.90
39919;DHT22;25589;51.552;13.424;2022-10-31T05:40:07;12.50;99.90
39919;DHT22;25589;51.552;13.424;2022-10-31T05:42:33;12.30;99.90
39919;DHT22;25589;51.552;13.424;2022-10-31T05:45:01;12.30;99.90
39919;DHT22;25589;51.552;13.424;2022-10-31T05:47:37;12.30;99.90
39919;DHT22;25589;51.552;13.424;2022-10-31T05:50:22;11.90;99.90
39919;DHT22;25589;51.552;13.424;2022-10-31T05:52:58;12.30;99.90
39919;DHT22;25589;51.552;13.424;2022-10-31T05:55:29;12.30;99.90
39919;DHT22;25589;51.552;13.424;2022-10-31T05:58:22;12.30;99.90
39919;DHT22;25589;51.552;13.424;2022-10-31T06:00:53;12.50;99.90
39919;DHT22;25589;51.552;13.424;2022-10-31T06:03:19;12.30;99.90
39919;DHT22;25589;51.552;13.424;2022-10-31T06:05:46;12.30;99.90
39919;DHT22;25589;51.552;13.424;2022-10-31T06:08:12;12.30;99.90
39919;DHT22;25589;51.552;13.424;2022-10-31T06:10:39;12.30;99.90
39919;DHT22;25589;51.552;13.424;2022-10-31T06:15:49;12.40;99.90
39919;DHT22;25589;51.552;13.424;2022-10-31T06:18:18;12.90;99.90
39919;DHT22;25589;51.552;13.424;2022-10-31T06:20:47;13.00;99.90
39919;DHT22;25589;51.552;13.424;2022-10-31T06:23:12;12.40;99.90
39919;DHT22;25589;51.552;13.424;2022-10-31T06:28:09;12.50;99.90
39919;DHT22;25589;51.552;13.424;2022-10-31T06:30:55;13.00;99.90
39919;DHT22;25589;51.552;13.424;2022-10-31T06:33:21;12.90;99.90
39919;DHT22;25589;51.552;13.424;2022-10-31T06:35:54;13.20;99.90
39919;DHT22;25589;51.552;13.424;2022-10-31T06:38:21;12.60;99.90
39919;DHT22;25589;51.552;13.424;2022-10-31T06:40:46;12.70;99.90
39919;DHT22;25589;51.552;13.424;2022-10-31T06:46:16;12.60;99.90
39919;DHT22;25589;51.552;13.424;2022-10-31T06:48:52;13.50;99.90
39919;DHT22;25589;51.552;13.424;2022-10-31T06:51:23;12.60;99.90
39919;DHT22;25589;51.552;13.424;2022-10-31T06:53:50;12.70;99.90
39919;DHT22;25589;51.552;13.424;2022-10-31T06:56:18;12.80;99.90
39919;DHT22;25589;51.552;13.424;2022-10-31T06:58:47;12.70;99.90
39919;DHT22;25589;51.552;13.424;2022-10-31T07:01:14;12.70;99.90
39919;DHT22;25589;51.552;13.424;2022-10-31T07:03:39;12.70;99.90
39919;DHT22;25589;51.552;13.424;2022-10-31T07:06:06;12.80;99.90
39919;DHT22;25589;51.552;13.424;2022-10-31T07:08:32;12.80;99.90
39919;DHT22;25589;51.552;13.424;2022-10-31T07:11:01;12.70;99.90
39919;DHT22;25589;51.552;13.424;2022-10-31T07:13:28;12.90;99.90
39919;DHT22;25589;51.552;13.424;2022-10-31T07:16:05;12.80;99.90
39919;DHT22;25589;51.552;13.424;2022-10-31T07:18:37;13.00;99.90
39919;DHT22;25589;51.552;13.424;2022-10-31T07:21:03;13.00;99.90
39919;DHT22;25589;51.552;13.424;2022-10-31T07:23:29;13.00;99.90
39919;DHT22;25589;51.552;13.424;2022-10-31T07:26:13;13.00;99.90
39919;DHT22;25589;51.552;13.424;2022-10-31T07:28:45;13.00;99.90
39919;DHT22;25589;51.552;13.424;2022-10-31T07:31:12;13.10;99.90
39919;DHT22;25589;51.552;13.424;2022-10-31T07:33:38;13.10;99.90
39919;DHT22;25589;51.552;13.424;2022-10-31T07:36:39;13.20;99.90
39919;DHT22;25589;51.552;13.424;2022-10-31T07:39:04;13.30;99.90
39919;DHT22;25589;51.552;13.424;2022-10-31T07:41:33;12.60;99.90
39919;DHT22;25589;51.552;13.424;2022-10-31T07:43:59;13.60;99.90
39919;DHT22;25589;51.552;13.424;2022-10-31T07:47:02;13.50;99.90
39919;DHT22;25589;51.552;13.424;2022-10-31T07:49:54;12.90;99.90
39919;DHT22;25589;51.552;13.424;2022-10-31T07:52:57;13.60;99.90
39919;DHT22;25589;51.552;13.424;2022-10-31T07:55:44;13.70;99.90
39919;DHT22;25589;51.552;13.424;2022-10-31T07:58:16;13.80;99.90
39919;DHT22;25589;51.552;13.424;2022-10-31T08:00:46;14.00;99.90
39919;DHT22;25589;51.552;13.424;2022-10-31T08:03:17;13.90;99.90
39919;DHT22;25589;51.552;13.424;2022-10-31T08:06:01;14.00;99.90
39919;DHT22;25589;51.552;13.424;2022-10-31T08:08:53;14.20;99.90
39919;DHT22;25589;51.552;13.424;2022-10-31T08:11:18;14.30;99.90
39919;DHT22;25589;51.552;13.424;2022-10-31T08:13:44;14.50;99.90
39919;DHT22;25589;51.552;13.424;2022-10-31T08:16:12;14.60;99.90
39919;DHT22;25589;51.552;13.424;2022-10-31T08:18:48;14.50;99.90
39919;DHT22;25589;51.552;13.424;2022-10-31T08:21:15;14.60;99.90
39919;DHT22;25589;51.552;13.424;2022-10-31T08:23:41;14.50;99.90
39919;DHT22;25589;51.552;13.424;2022-10-31T08:26:07;14.80;99.90
39919;DHT22;25589;51.552;13.424;2022-10-31T08:28:33;14.90;99.90
39919;DHT22;25589;51.552;13.424;2022-10-31T08:30:58;14.60;99.90
39919;DHT22;25589;51.552;13.424;2022-10-31T08:33:47;15.10;99.90
39919;DHT22;25589;51.552;13.424;2022-10-31T08:36:19;15.60;99.90
39919;DHT22;25589;51.552;13.424;2022-10-31T08:39:08;15.50;99.90
39919;DHT22;25589;51.552;13.424;2022-10-31T08:41:34;15.40;99.90
39919;DHT22;25589;51.552;13.424;2022-10-31T08:44:00;15.40;99.90
39919;DHT22;25589;51.552;13.424;2022-10-31T08:46:26;15.60;99.90
39919;DHT22;25589;51.552;13.424;2022-10-31T08:48:52;15.70;99.90
39919;DHT22;25589;51.552;13.424;2022-10-31T08:51:19;15.70;99.90
39919;DHT22;25589;51.552;13.424;2022-10-31T08:53:44;15.30;99.90
39919;DHT22;25589;51.552;13.424;2022-10-31T08:56:35;15.80;99.90
39919;DHT22;25589;51.552;13.424;2022-10-31T08:59:05;15.90;99.90
39919;DHT22;25589;51.552;13.424;2022-10-31T09:02:00;16.00;99.90
39919;DHT22;25589;51.552;13.424;2022-10-31T09:04:26;16.10;99.90
39919;DHT22;25589;51.552;13.424;2022-10-31T09:06:51;16.30;99.90
39919;DHT22;25589;51.552;13.424;2022-10-31T09:09:17;16.30;99.90
39919;DHT22;25589;51.552;13.424;2022-10-31T09:11:42;16.30;99.90
39919;DHT22;25589;51.552;13.424;2022-10-31T09:14:23;16.50;99.90
39919;DHT22;25589;51.552;13.424;2022-10-31T09:17:07;16.50;99.90
39919;DHT22;25589;51.552;13.424;2022-10-31T09:19:50;16.60;99.90
39919;DHT22;25589;51.552;13.424;2022-10-31T09:22:16;16.60;99.90
39919;DHT22;25589;51.552;13.424;2022-10-31T09:24:41;17.00;99.90
39919;DHT22;25589;51.552;13.424;2022-10-31T09:27:07;16.80;99.90
39919;DHT22;25589;51.552;13.424;2022-10-31T09:29:36;17.20;99.90
39919;DHT22;25589;51.552;13.424;2022-10-31T09:32:03;17.10;99.90
39919;DHT22;25589;51.552;13.424;2022-10-31T09:34:32;17.10;99.90
39919;DHT22;25589;51.552;13.424;2022-10-31T09:37:14;17.40;99.90
39919;DHT22;25589;51.552;13.424;2022-10-31T09:39:39;17.50;99.90
39919;DHT22;25589;51.552;13.424;2022-10-31T09:48:12;18.00;99.90
39919;DHT22;25589;51.552;13.424;2022-10-31T09:51:20;18.10;99.90
39919;DHT22;25589;51.552;13.424;2022-10-31T09:56:23;18.30;99.90
39919;DHT22;25589;51.552;13.424;2022-10-31T09:58:56;18.50;99.90
39919;DHT22;25589;51.552;13.424;2022-10-31T10:13:44;19.10;99.90
39919;DHT22;25589;51.552;13.424;2022-10-31T10:27:30;19.30;99.90
39919;DHT22;25589;51.552;13.424;2022-10-31T10:30:19;19.50;99.90
39919;DHT22;25589;51.552;13.424;2022-10-31T10:32:57;19.50;99.90
39919;DHT22;25589;51.552;13.424;2022-10-31T10:35:30;19.70;99.90
39919;DHT22;25589;51.552;13.424;2022-10-31T10:38:02;19.80;99.90
39919;DHT22;25589;51.552;13.424;2022-10-31T10:40:29;19.90;99.90
39919;DHT22;25589;51.552;13.424;2022-10-31T10:48:42;20.20;99.90
39919;DHT22;25589;51.552;13.424;2022-10-31T10:51:22;20.30;99.90
39919;DHT22;25589;51.552;13.424;2022-10-31T10:59:27;20.80;99.90
39919;DHT22;25589;51.552;13.424;2022-10-31T11:01:54;20.90;99.90
39919;DHT22;25589;51.552;13.424;2022-10-31T11:04:33;20.90;99.90
39919;DHT22;25589;51.552;13.424;2022-10-31T11:07:09;21.00;99.90
39919;DHT22;25589;51.552;13.424;2022-10-31T11:09:36;21.10;99.90
39919;DHT22;25589;51.552;13.424;2022-10-31T11:15:15;21.50;99.90
39919;DHT22;25589;51.552;13.424;2022-10-31T11:17:42;21.50;99.90
39919;DHT22;25589;51.552;13.424;2022-10-31T11:22:46;21.70;99.90
39919;DHT22;25589;51.552;13.424;2022-10-31T11:25:26;21.70;99.90
39919;DHT22;25589;51.552;13.424;2022-10-31T11:28:05;21.70;99.90
39919;DHT22;25589;51.552;13.424;2022-10-31T11:30:46;21.60;99.90
39919;DHT22;25589;51.552;13.424;2022-10-31T11:35:44;21.80;99.90
39919;DHT22;25589;51.552;13.424;2022-10-31T11:38:18;21.80;99.90
39919;DHT22;25589;51.552;13.424;2022-10-31T11:43:30;21.90;99.90
39919;DHT22;25589;51.552;13.424;2022-10-31T11:45:56;21.90;99.90
39919;DHT22;25589;51.552;13.424;2022-10-31T11:48:23;22.00;99.90
39919;DHT22;25589;51.552;13.424;2022-10-31T11:50:57;22.10;99.90
39919;DHT22;25589;51.552;13.424;2022-10-31T11:53:29;22.00;99.90
39919;DHT22;25589;51.552;13.424;2022-10-31T11:56:13;21.90;99.90
39919;DHT22;25589;51.552;13.424;2022-10-31T11:58:39;22.00;99.90
39919;DHT22;25589;51.552;13.424;2022-10-31T12:01:05;22.00;99.90
39919;DHT22;25589;51.552;13.424;2022-10-31T12:06:16;22.10;99.90
39919;DHT22;25589;51.552;13.424;2022-10-31T12:08:44;22.20;99.90
39919;DHT22;25589;51.552;13.424;2022-10-31T12:11:31;22.10;99.90
39919;DHT22;25589;51.552;13.424;2022-10-31T12:17:19;22.30;99.90
39919;DHT22;25589;51.552;13.424;2022-10-31T12:20:30;22.30;99.90
39919;DHT22;25589;51.552;13.424;2022-10-31T12:23:06;22.40;99.90
39919;DHT22;25589;51.552;13.424;2022-10-31T12:25:46;22.40;99.90
39919;DHT22;25589;51.552;13.424;2022-10-31T12:28:54;22.10;99.90
39919;DHT22;25589;51.552;13.424;2022-10-31T12:31:43;22.20;99.90
39919;DHT22;25589;51.552;13.424;2022-10-31T12:40:19;22.60;99.90
39919;DHT22;25589;51.552;13.424;2022-10-31T12:45:49;22.70;99.90
39919;DHT22;25589;51.552;13.424;2022-10-31T12:51:22;22.80;99.90
39919;DHT22;25589;51.552;13.424;2022-10-31T12:54:16;22.70;99.90
39919;DHT22;25589;51.552;13.424;2022-10-31T12:59:47;22.80;99.90
39919;DHT22;25589;51.552;13.424;2022-10-31T13:05:10;23.00;99.90
39919;DHT22;25589;51.552;13.424;2022-10-31T13:08:03;23.20;99.90
39919;DHT22;25589;51.552;13.424;2022-10-31T13:10:32;23.10;99.90
39919;DHT22;25589;51.552;13.424;2022-10-31T13:13:05;23.00;99.90
39919;DHT22;25589;51.552;13.424;2022-10-31T13:15:46;23.10;99.90
39919;DHT22;25589;51.552;13.424;2022-10-31T13:18:21;23.30;99.90
39919;DHT22;25589;51.552;13.424;2022-10-31T13:20:49;23.30;99.90
39919;DHT22;25589;51.552;13.424;2022-10-31T13:23:29;23.30;99.90
39919;DHT22;25589;51.552;13.424;2022-10-31T13:25:57;23.20;99.90
39919;DHT22;25589;51.552;13.424;2022-10-31T13:28:56;23.10;99.90
39919;DHT22;25589;51.552;13.424;2022-10-31T13:31:25;23.20;99.90
39919;DHT22;25589;51.552;13.424;2022-10-31T13:33:57;23.10;99.90
39919;DHT22;25589;51.552;13.424;2022-10-31T13:36:34;23.10;99.90
39919;DHT22;25589;51.552;13.424;2022-10-31T13:39:19;23.20;99.90
39919;DHT22;25589;51.552;13.424;2022-10-31T13:41:51;23.40;99.90
39919;DHT22;25589;51.552;13.424;2022-10-31T13:46:52;23.10;99.90
39919;DHT22;25589;51.552;13.424;2022-10-31T13:54:48;23.30;99.90
39919;DHT22;25589;51.552;13.424;2022-10-31T14:00:14;23.40;99.90
39919;DHT22;25589;51.552;13.424;2022-10-31T14:02:52;23.30;99.90
39919;DHT22;25589;51.552;13.424;2022-10-31T14:05:28;23.30;99.90
39919;DHT22;25589;51.552;13.424;2022-10-31T14:07:56;23.10;99.90
39919;DHT22;25589;51.552;13.424;2022-10-31T14:10:24;23.10;99.90
39919;DHT22;25589;51.552;13.424;2022-10-31T14:12:51;23.00;99.90
39919;DHT22;25589;51.552;13.424;2022-10-31T14:15:23;23.00;99.90
39919;DHT22;25589;51.552;13.424;2022-10-31T14:18:04;22.90;99.90
39919;DHT22;25589;51.552;13.424;2022-10-31T14:20:40;22.90;99.90
39919;DHT22;25589;51.552;13.424;2022-10-31T14:23:31;22.70;99.90
39919;DHT22;25589;51.552;13.424;2022-10-31T14:31:37;22.40;99.90
39919;DHT22;25589;51.552;13.424;2022-10-31T14:37:08;22.30;99.90
39919;DHT22;25589;51.552;13.424;2022-10-31T14:39:54;22.20;99.90
39919;DHT22;25589;51.552;13.424;2022-10-31T14:45:44;22.00;99.90
39919;DHT22;25589;51.552;13.424;2022-10-31T14:48:29;21.90;99.90
39919;DHT22;25589;51.552;13.424;2022-10-31T14:50:58;21.70;99.90
39919;DHT22;25589;51.552;13.424;2022-10-31T14:53:35;21.60;99.90
39919;DHT22;25589;51.552;13.424;2022-10-31T14:56:02;21.50;99.90
39919;DHT22;25589;51.552;13.424;2022-10-31T14:58:35;21.40;99.90
39919;DHT22;25589;51.552;13.424;2022-10-31T15:01:02;21.30;99.90
39919;DHT22;25589;51.552;13.424;2022-10-31T15:03:35;21.20;99.90
39919;DHT22;25589;51.552;13.424;2022-10-31T15:06:13;21.10;99.90
39919;DHT22;25589;51.552;13.424;2022-10-31T15:08:43;21.00;99.90
39919;DHT22;25589;51.552;13.424;2022-10-31T15:11:12;20.90;99.90
39919;DHT22;25589;51.552;13.424;2022-10-31T15:13:42;20.80;99.90
39919;DHT22;25589;51.552;13.424;2022-10-31T15:16:10;20.70;99.90
39919;DHT22;25589;51.552;13.424;2022-10-31T15:18:38;20.60;99.90
39919;DHT22;25589;51.552;13.424;2022-10-31T15:21:09;20.50;99.90
39919;DHT22;25589;51.552;13.424;2022-10-31T15:23:35;20.40;99.90
39919;DHT22;25589;51.552;13.424;2022-10-31T15:26:03;20.30;99.90
39919;DHT22;25589;51.552;13.424;2022-10-31T15:28:30;20.30;99.90
39919;DHT22;25589;51.552;13.424;2022-10-31T15:30:58;20.20;99.90
39919;DHT22;25589;51.552;13.424;2022-10-31T15:33:30;20.00;99.90
39919;DHT22;25589;51.552;13.424;2022-10-31T15:36:01;20.00;99.90
39919;DHT22;25589;51.552;13.424;2022-10-31T15:38:27;19.80;99.90
39919;DHT22;25589;51.552;13.424;2022-10-31T15:41:01;19.70;99.90
39919;DHT22;25589;51.552;13.424;2022-10-31T15:43:35;19.60;99.90
39919;DHT22;25589;51.552;13.424;2022-10-31T15:46:02;19.40;99.90
39919;DHT22;25589;51.552;13.424;2022-10-31T15:48:28;19.30;99.90
39919;DHT22;25589;51.552;13.424;2022-10-31T15:50:57;19.10;99.90
39919;DHT22;25589;51.552;13.424;2022-10-31T15:53:38;19.00;99.90
39919;DHT22;25589;51.552;13.424;2022-10-31T15:56:10;18.90;99.90
39919;DHT22;25589;51.552;13.424;2022-10-31T15:58:44;18.80;99.90
39919;DHT22;25589;51.552;13.424;2022-10-31T16:01:25;18.60;99.90
39919;DHT22;25589;51.552;13.424;2022-10-31T16:06:37;18.50;99.90
39919;DHT22;25589;51.552;13.424;2022-10-31T16:09:04;18.40;99.90
39919;DHT22;25589;51.552;13.424;2022-10-31T16:11:43;18.20;99.90
39919;DHT22;25589;51.552;13.424;2022-10-31T16:16:42;18.10;99.90
39919;DHT22;25589;51.552;13.424;2022-10-31T16:22:20;18.00;99.90
39919;DHT22;25589;51.552;13.424;2022-10-31T16:25:03;18.00;99.90
39919;DHT22;25589;51.552;13.424;2022-10-31T16:27:34;17.90;99.90
39919;DHT22;25589;51.552;13.424;2022-10-31T16:30:02;17.80;99.90
39919;DHT22;25589;51.552;13.424;2022-10-31T16:32:52;17.80;99.90
39919;DHT22;25589;51.552;13.424;2022-10-31T16:35:39;17.80;99.90
39919;DHT22;25589;51.552;13.424;2022-10-31T16:38:05;17.50;99.90
39919;DHT22;25589;51.552;13.424;2022-10-31T16:40:31;17.70;99.90
39919;DHT22;25589;51.552;13.424;2022-10-31T16:42:58;17.60;99.90
39919;DHT22;25589;51.552;13.424;2022-10-31T16:45:26;17.20;99.90
39919;DHT22;25589;51.552;13.424;2022-10-31T16:47:52;17.60;99.90
39919;DHT22;25589;51.552;13.424;2022-10-31T16:50:23;17.60;99.90
39919;DHT22;25589;51.552;13.424;2022-10-31T16:52:50;17.60;99.90
39919;DHT22;25589;51.552;13.424;2022-10-31T16:55:17;17.50;99.90
39919;DHT22;25589;51.552;13.424;2022-10-31T16:57:48;17.50;99.90
39919;DHT22;25589;51.552;13.424;2022-10-31T17:00:19;17.30;99.90
39919;DHT22;25589;51.552;13.424;2022-10-31T17:02:46;17.30;99.90
39919;DHT22;25589;51.552;13.424;2022-10-31T17:05:13;17.30;99.90
39919;DHT22;25589;51.552;13.424;2022-10-31T17:07:40;17.20;99.90
39919;DHT22;25589;51.552;13.424;2022-10-31T17:10:07;17.20;99.90
39919;DHT22;25589;51.552;13.424;2022-10-31T17:12:33;16.90;99.90
39919;DHT22;25589;51.552;13.424;2022-10-31T17:14:59;17.10;99.90
39919;DHT22;25589;51.552;13.424;2022-10-31T17:17:24;17.10;99.90
39919;DHT22;25589;51.552;13.424;2022-10-31T17:19:50;16.90;99.90
39919;DHT22;25589;51.552;13.424;2022-10-31T17:22:16;16.70;99.90
39919;DHT22;25589;51.552;13.424;2022-10-31T17:24:41;16.90;99.90
39919;DHT22;25589;51.552;13.424;2022-10-31T17:27:07;16.90;99.90
39919;DHT22;25589;51.552;13.424;2022-10-31T17:29:32;16.80;99.90
39919;DHT22;25589;51.552;13.424;2022-10-31T17:31:58;16.80;99.90
39919;DHT22;25589;51.552;13.424;2022-10-31T17:34:24;16.80;99.90
39919;DHT22;25589;51.552;13.424;2022-10-31T17:36:51;16.70;99.90
39919;DHT22;25589;51.552;13.424;2022-10-31T17:39:21;16.70;99.90
39919;DHT22;25589;51.552;13.424;2022-10-31T17:41:50;16.70;99.90
39919;DHT22;25589;51.552;13.424;2022-10-31T17:44:17;16.70;99.90
39919;DHT22;25589;51.552;13.424;2022-10-31T17:46:43;16.60;99.90
39919;DHT22;25589;51.552;13.424;2022-10-31T17:49:10;16.10;99.90
39919;DHT22;25589;51.552;13.424;2022-10-31T17:51:36;16.60;99.90
39919;DHT22;25589;51.552;13.424;2022-10-31T17:54:02;16.50;99.90
39919;DHT22;25589;51.552;13.424;2022-10-31T17:56:27;16.50;99.90
39919;DHT22;25589;51.552;13.424;2022-10-31T17:58:54;16.50;99.90
39919;DHT22;25589;51.552;13.424;2022-10-31T18:01:22;16.50;99.90